sensor_id;sensor_type;location;lat;lon;timestamp;temperature;humidity
7194;DHT22;3638;48.820;9.244;2023-06-04T00:00:03;15.50;95.20
7194;DHT22;3638;48.820;9.244;2023-06-04T00:02:32;15.60;95.00
7194;DHT22;3638;48.820;9.244;2023-06-04T00:04:59;15.60;94.80
7194;DHT22;3638;48.820;9.244;2023-06-04T00:07:26;15.50;94.80
7194;DHT22;3638;48.820;9.244;2023-06-04T00:14:48;15.10;95.70
7194;DHT22;3638;48.820;9.244;2023-06-04T00:17:15;15.00;95.90
7194;DHT22;3638;48.820;9.244;2023-06-04T00:19:44;15.00;96.00
7194;DHT22;3638;48.820;9.244;2023-06-04T00:27:07;14.90;96.20
7194;DHT22;3638;48.820;9.244;2023-06-04T00:32:02;14.80;96.20
7194;DHT22;3638;48.820;9.244;2023-06-04T00:34:30;14.90;96.30
7194;DHT22;3638;48.820;9.244;2023-06-04T00:36:58;14.80;96.50
7194;DHT22;3638;48.820;9.244;2023-06-04T00:39:27;14.80;96.60
7194;DHT22;3638;48.820;9.244;2023-06-04T00:41:54;14.70;96.80
7194;DHT22;3638;48.820;9.244;2023-06-04T00:46:50;14.40;97.70
7194;DHT22;3638;48.820;9.244;2023-06-04T00:49:19;14.30;98.00
7194;DHT22;3638;48.820;9.244;2023-06-04T00:51:46;14.20;98.20
7194;DHT22;3638;48.820;9.244;2023-06-04T00:54:15;14.20;98.30
7194;DHT22;3638;48.820;9.244;2023-06-04T00:56:43;14.20;98.60
7194;DHT22;3638;48.820;9.244;2023-06-04T00:59:11;14.30;98.30
7194;DHT22;3638;48.820;9.244;2023-06-04T01:01:44;14.30;98.30
7194;DHT22;3638;48.820;9.244;2023-06-04T01:04:29;14.30;97.90
7194;DHT22;3638;48.820;9.244;2023-06-04T01:07:00;14.30;97.90
7194;DHT22;3638;48.820;9.244;2023-06-04T01:09:31;14.20;98.10
7194;DHT22;3638;48.820;9.244;2023-06-04T01:11:59;14.20;98.10
7194;DHT22;3638;48.820;9.244;2023-06-04T01:16:58;14.30;97.80
7194;DHT22;3638;48.820;9.244;2023-06-04T01:20:03;14.20;98.00
7194;DHT22;3638;48.820;9.244;2023-06-04T01:22:59;14.00;98.80
7194;DHT22;3638;48.820;9.244;2023-06-04T01:25:36;13.90;98.90
7194;DHT22;3638;48.820;9.244;2023-06-04T01:28:05;13.90;98.70
7194;DHT22;3638;48.820;9.244;2023-06-04T01:30:35;13.90;98.80
7194;DHT22;3638;48.820;9.244;2023-06-04T01:33:09;13.90;98.50
7194;DHT22;3638;48.820;9.244;2023-06-04T01:35:37;13.80;98.70
7194;DHT22;3638;48.820;9.244;2023-06-04T01:38:04;13.70;99.10
7194;DHT22;3638;48.820;9.244;2023-06-04T01:40:31;13.60;99.40
7194;DHT22;3638;48.820;9.244;2023-06-04T01:43:00;13.60;99.60
7194;DHT22;3638;48.820;9.244;2023-06-04T01:47:56;13.70;98.60
7194;DHT22;3638;48.820;9.244;2023-06-04T01:52:51;13.70;98.40
7194;DHT22;3638;48.820;9.244;2023-06-04T01:57:47;13.80;98.00
7194;DHT22;3638;48.820;9.244;2023-06-04T02:00:16;13.80;97.60
7194;DHT22;3638;48.820;9.244;2023-06-04T02:02:44;13.80;97.60
7194;DHT22;3638;48.820;9.244;2023-06-04T02:05:13;13.80;97.70
7194;DHT22;3638;48.820;9.244;2023-06-04T02:07:43;13.80;97.60
7194;DHT22;3638;48.820;9.244;2023-06-04T02:10:11;13.80;97.40
7194;DHT22;3638;48.820;9.244;2023-06-04T02:12:40;13.80;97.20
7194;DHT22;3638;48.820;9.244;2023-06-04T02:15:20;13.80;97.10
7194;DHT22;3638;48.820;9.244;2023-06-04T02:17:48;13.70;97.30
7194;DHT22;3638;48.820;9.244;2023-06-04T02:20:16;13.60;97.50
7194;DHT22;3638;48.820;9.244;2023-06-04T02:22:43;13.50;97.70
7194;DHT22;3638;48.820;9.244;2023-06-04T02:25:10;13.40;97.60
7194;DHT22;3638;48.820;9.244;2023-06-04T02:27:37;13.30;98.10
7194;DHT22;3638;48.820;9.244;2023-06-04T02:30:06;13.20;98.10
7194;DHT22;3638;48.820;9.244;2023-06-04T02:32:35;13.20;97.90
7194;DHT22;3638;48.820;9.244;2023-06-04T02:35:03;13.20;98.00
7194;DHT22;3638;48.820;9.244;2023-06-04T02:37:30;13.20;97.80
7194;DHT22;3638;48.820;9.244;2023-06-04T02:39:57;13.20;97.90
7194;DHT22;3638;48.820;9.244;2023-06-04T02:47:19;13.20;97.90
7194;DHT22;3638;48.820;9.244;2023-06-04T02:49:47;13.20;97.90
7194;DHT22;3638;48.820;9.244;2023-06-04T02:54:42;13.10;98.20
7194;DHT22;3638;48.820;9.244;2023-06-04T02:57:09;13.10;97.80
7194;DHT22;3638;48.820;9.244;2023-06-04T02:59:36;13.10;97.40
7194;DHT22;3638;48.820;9.244;2023-06-04T03:02:04;13.10;97.40
7194;DHT22;3638;48.820;9.244;2023-06-04T03:04:31;13.10;97.40
7194;DHT22;3638;48.820;9.244;2023-06-04T03:07:01;13.10;97.10
7194;DHT22;3638;48.820;9.244;2023-06-04T03:09:29;13.10;97.10
7194;DHT22;3638;48.820;9.244;2023-06-04T03:11:59;13.00;96.80
7194;DHT22;3638;48.820;9.244;2023-06-04T03:14:31;13.00;96.80
7194;DHT22;3638;48.820;9.244;2023-06-04T03:16:59;13.00;96.50
7194;DHT22;3638;48.820;9.244;2023-06-04T03:19:35;12.60;96.10
7194;DHT22;3638;48.820;9.244;2023-06-04T03:22:04;13.10;96.30
7194;DHT22;3638;48.820;9.244;2023-06-04T03:24:33;13.10;96.00
7194;DHT22;3638;48.820;9.244;2023-06-04T03:27:02;13.00;96.00
7194;DHT22;3638;48.820;9.244;2023-06-04T03:34:25;12.90;96.40
7194;DHT22;3638;48.820;9.244;2023-06-04T03:36:52;12.90;96.50
7194;DHT22;3638;48.820;9.244;2023-06-04T03:39:21;13.00;96.30
7194;DHT22;3638;48.820;9.244;2023-06-04T03:41:48;13.00;96.30
7194;DHT22;3638;48.820;9.244;2023-06-04T03:44:16;12.90;96.20
7194;DHT22;3638;48.820;9.244;2023-06-04T03:46:44;12.90;96.50
7194;DHT22;3638;48.820;9.244;2023-06-04T03:49:12;12.80;96.40
7194;DHT22;3638;48.820;9.244;2023-06-04T03:54:07;12.90;96.30
7194;DHT22;3638;48.820;9.244;2023-06-04T03:56:37;13.00;96.30
7194;DHT22;3638;48.820;9.244;2023-06-04T03:59:04;13.00;96.10
7194;DHT22;3638;48.820;9.244;2023-06-04T04:01:32;13.10;95.80
7194;DHT22;3638;48.820;9.244;2023-06-04T04:03:59;13.20;95.40
7194;DHT22;3638;48.820;9.244;2023-06-04T04:06:26;13.20;95.30
7194;DHT22;3638;48.820;9.244;2023-06-04T04:13:49;13.30;95.10
7194;DHT22;3638;48.820;9.244;2023-06-04T04:16:16;13.20;95.10
7194;DHT22;3638;48.820;9.244;2023-06-04T04:21:12;13.50;95.10
7194;DHT22;3638;48.820;9.244;2023-06-04T04:23:39;13.60;94.70
7194;DHT22;3638;48.820;9.244;2023-06-04T04:26:07;13.80;94.60
7194;DHT22;3638;48.820;9.244;2023-06-04T04:28:35;13.90;94.40
7194;DHT22;3638;48.820;9.244;2023-06-04T04:31:04;14.10;94.30
7194;DHT22;3638;48.820;9.244;2023-06-04T04:36:05;14.20;94.60
7194;DHT22;3638;48.820;9.244;2023-06-04T04:38:34;14.30;94.40
7194;DHT22;3638;48.820;9.244;2023-06-04T04:41:01;14.40;94.20
7194;DHT22;3638;48.820;9.244;2023-06-04T04:43:29;14.70;93.50
7194;DHT22;3638;48.820;9.244;2023-06-04T04:45:57;14.70;93.90
7194;DHT22;3638;48.820;9.244;2023-06-04T04:48:26;15.00;93.40
7194;DHT22;3638;48.820;9.244;2023-06-04T04:50:53;15.10;92.90
7194;DHT22;3638;48.820;9.244;2023-06-04T04:53:20;15.30;92.60
7194;DHT22;3638;48.820;9.244;2023-06-04T04:55:48;15.40;93.10
7194;DHT22;3638;48.820;9.244;2023-06-04T04:58:15;15.60;92.70
7194;DHT22;3638;48.820;9.244;2023-06-04T05:00:42;15.80;92.40
7194;DHT22;3638;48.820;9.244;2023-06-04T05:03:09;16.00;91.40
7194;DHT22;3638;48.820;9.244;2023-06-04T05:05:38;16.10;90.90
7194;DHT22;3638;48.820;9.244;2023-06-04T05:08:05;16.10;90.70
7194;DHT22;3638;48.820;9.244;2023-06-04T05:10:33;16.30;90.60
7194;DHT22;3638;48.820;9.244;2023-06-04T05:13:01;16.40;90.30
7194;DHT22;3638;48.820;9.244;2023-06-04T05:17:58;16.80;90.20
7194;DHT22;3638;48.820;9.244;2023-06-04T05:20:26;16.90;90.10
7194;DHT22;3638;48.820;9.244;2023-06-04T05:22:54;17.10;90.10
7194;DHT22;3638;48.820;9.244;2023-06-04T05:25:22;17.30;88.80
7194;DHT22;3638;48.820;9.244;2023-06-04T05:27:49;17.60;88.60
7194;DHT22;3638;48.820;9.244;2023-06-04T05:30:16;17.90;87.80
7194;DHT22;3638;48.820;9.244;2023-06-04T05:32:43;18.00;86.20
7194;DHT22;3638;48.820;9.244;2023-06-04T05:35:11;17.70;83.80
7194;DHT22;3638;48.820;9.244;2023-06-04T05:37:38;17.60;85.00
7194;DHT22;3638;48.820;9.244;2023-06-04T05:40:08;17.30;84.20
7194;DHT22;3638;48.820;9.244;2023-06-04T05:42:36;16.90;84.90
7194;DHT22;3638;48.820;9.244;2023-06-04T05:45:05;16.70;86.70
7194;DHT22;3638;48.820;9.244;2023-06-04T05:47:34;16.60;86.80
7194;DHT22;3638;48.820;9.244;2023-06-04T05:50:03;16.70;85.10
7194;DHT22;3638;48.820;9.244;2023-06-04T05:52:31;16.80;83.90
7194;DHT22;3638;48.820;9.244;2023-06-04T05:54:59;16.50;84.90
7194;DHT22;3638;48.820;9.244;2023-06-04T05:57:28;16.40;86.10
7194;DHT22;3638;48.820;9.244;2023-06-04T05:59:55;16.50;83.80
7194;DHT22;3638;48.820;9.244;2023-06-04T06:02:22;17.00;85.40
7194;DHT22;3638;48.820;9.244;2023-06-04T06:04:49;17.50;84.10
7194;DHT22;3638;48.820;9.244;2023-06-04T06:07:16;18.30;80.10
7194;DHT22;3638;48.820;9.244;2023-06-04T06:12:12;18.30;79.40
7194;DHT22;3638;48.820;9.244;2023-06-04T06:14:40;18.80;77.40
7194;DHT22;3638;48.820;9.244;2023-06-04T06:17:08;19.30;76.30
7194;DHT22;3638;48.820;9.244;2023-06-04T06:19:36;19.20;74.60
7194;DHT22;3638;48.820;9.244;2023-06-04T06:24:31;18.70;77.00
7194;DHT22;3638;48.820;9.244;2023-06-04T06:26:58;18.70;77.80
7194;DHT22;3638;48.820;9.244;2023-06-04T06:29:25;19.30;77.10
7194;DHT22;3638;48.820;9.244;2023-06-04T06:31:54;19.80;76.00
7194;DHT22;3638;48.820;9.244;2023-06-04T06:34:21;19.90;75.20
7194;DHT22;3638;48.820;9.244;2023-06-04T06:36:48;20.20;74.70
7194;DHT22;3638;48.820;9.244;2023-06-04T06:39:16;20.70;72.40
7194;DHT22;3638;48.820;9.244;2023-06-04T06:44:11;21.20;70.80
7194;DHT22;3638;48.820;9.244;2023-06-04T06:49:07;21.50;71.00
7194;DHT22;3638;48.820;9.244;2023-06-04T06:51:34;21.60;72.50
7194;DHT22;3638;48.820;9.244;2023-06-04T06:54:01;20.90;71.70
7194;DHT22;3638;48.820;9.244;2023-06-04T06:56:28;20.40;73.40
7194;DHT22;3638;48.820;9.244;2023-06-04T06:58:56;20.20;75.40
7194;DHT22;3638;48.820;9.244;2023-06-04T07:03:50;20.50;72.30
7194;DHT22;3638;48.820;9.244;2023-06-04T07:08:46;20.90;73.80
7194;DHT22;3638;48.820;9.244;2023-06-04T07:13:42;20.40;74.50
7194;DHT22;3638;48.820;9.244;2023-06-04T07:16:09;20.30;75.80
7194;DHT22;3638;48.820;9.244;2023-06-04T07:18:36;20.70;74.70
7194;DHT22;3638;48.820;9.244;2023-06-04T07:21:03;21.40;72.20
7194;DHT22;3638;48.820;9.244;2023-06-04T07:23:32;21.50;71.40
7194;DHT22;3638;48.820;9.244;2023-06-04T07:25:59;21.20;71.40
7194;DHT22;3638;48.820;9.244;2023-06-04T07:28:26;21.30;73.30
7194;DHT22;3638;48.820;9.244;2023-06-04T07:30:53;21.90;70.50
7194;DHT22;3638;48.820;9.244;2023-06-04T07:33:20;22.10;70.90
7194;DHT22;3638;48.820;9.244;2023-06-04T07:35:47;22.90;68.40
7194;DHT22;3638;48.820;9.244;2023-06-04T07:38:14;23.30;67.20
7194;DHT22;3638;48.820;9.244;2023-06-04T07:40:47;23.10;68.60
7194;DHT22;3638;48.820;9.244;2023-06-04T07:43:14;22.90;68.30
7194;DHT22;3638;48.820;9.244;2023-06-04T07:45:41;22.60;68.00
7194;DHT22;3638;48.820;9.244;2023-06-04T07:48:09;22.80;68.70
7194;DHT22;3638;48.820;9.244;2023-06-04T07:50:37;22.50;67.80
7194;DHT22;3638;48.820;9.244;2023-06-04T07:53:05;23.20;68.40
7194;DHT22;3638;48.820;9.244;2023-06-04T07:58:02;23.20;67.50
7194;DHT22;3638;48.820;9.244;2023-06-04T08:00:30;23.20;68.20
7194;DHT22;3638;48.820;9.244;2023-06-04T08:05:25;22.70;68.80
7194;DHT22;3638;48.820;9.244;2023-06-04T08:07:52;23.20;67.50
7194;DHT22;3638;48.820;9.244;2023-06-04T08:10:19;22.20;69.60
7194;DHT22;3638;48.820;9.244;2023-06-04T08:12:46;22.50;70.90
7194;DHT22;3638;48.820;9.244;2023-06-04T08:15:15;22.10;72.00
7194;DHT22;3638;48.820;9.244;2023-06-04T08:17:42;22.20;72.60
7194;DHT22;3638;48.820;9.244;2023-06-04T08:20:09;22.40;72.60
7194;DHT22;3638;48.820;9.244;2023-06-04T08:25:05;22.50;73.00
7194;DHT22;3638;48.820;9.244;2023-06-04T08:27:34;22.50;71.70
7194;DHT22;3638;48.820;9.244;2023-06-04T08:30:01;22.50;71.00
7194;DHT22;3638;48.820;9.244;2023-06-04T08:32:33;22.90;71.80
7194;DHT22;3638;48.820;9.244;2023-06-04T08:37:28;23.30;70.40
7194;DHT22;3638;48.820;9.244;2023-06-04T08:39:55;23.80;71.20
7194;DHT22;3638;48.820;9.244;2023-06-04T08:42:29;24.00;69.10
7194;DHT22;3638;48.820;9.244;2023-06-04T08:44:57;24.40;70.90
7194;DHT22;3638;48.820;9.244;2023-06-04T08:47:25;24.20;68.60
7194;DHT22;3638;48.820;9.244;2023-06-04T08:49:58;24.00;67.70
7194;DHT22;3638;48.820;9.244;2023-06-04T08:52:26;23.50;69.70
7194;DHT22;3638;48.820;9.244;2023-06-04T08:54:54;23.20;70.00
7194;DHT22;3638;48.820;9.244;2023-06-04T08:59:50;23.80;68.50
7194;DHT22;3638;48.820;9.244;2023-06-04T09:02:17;23.80;68.20
7194;DHT22;3638;48.820;9.244;2023-06-04T09:04:45;23.70;67.10
7194;DHT22;3638;48.820;9.244;2023-06-04T09:07:14;23.80;67.80
7194;DHT22;3638;48.820;9.244;2023-06-04T09:09:46;23.20;68.80
7194;DHT22;3638;48.820;9.244;2023-06-04T09:12:19;23.40;69.90
7194;DHT22;3638;48.820;9.244;2023-06-04T09:14:48;23.30;68.20
7194;DHT22;3638;48.820;9.244;2023-06-04T09:17:21;23.60;68.70
7194;DHT22;3638;48.820;9.244;2023-06-04T09:19:48;23.60;69.50
7194;DHT22;3638;48.820;9.244;2023-06-04T09:22:17;23.70;69.20
7194;DHT22;3638;48.820;9.244;2023-06-04T09:24:45;23.80;66.80
7194;DHT22;3638;48.820;9.244;2023-06-04T09:27:16;23.90;67.60
7194;DHT22;3638;48.820;9.244;2023-06-04T09:29:50;23.30;67.30
7194;DHT22;3638;48.820;9.244;2023-06-04T09:32:22;23.60;68.30
7194;DHT22;3638;48.820;9.244;2023-06-04T09:34:49;23.60;67.80
7194;DHT22;3638;48.820;9.244;2023-06-04T09:37:20;23.80;67.40
7194;DHT22;3638;48.820;9.244;2023-06-04T09:39:52;24.00;66.30
7194;DHT22;3638;48.820;9.244;2023-06-04T09:42:20;23.90;66.40
7194;DHT22;3638;48.820;9.244;2023-06-04T09:44:48;24.20;66.60
7194;DHT22;3638;48.820;9.244;2023-06-04T09:47:15;24.10;67.70
7194;DHT22;3638;48.820;9.244;2023-06-04T09:49:43;24.40;67.30
7194;DHT22;3638;48.820;9.244;2023-06-04T09:52:11;24.50;63.00
7194;DHT22;3638;48.820;9.244;2023-06-04T09:54:41;24.20;65.10
7194;DHT22;3638;48.820;9.244;2023-06-04T09:57:14;24.40;65.80
7194;DHT22;3638;48.820;9.244;2023-06-04T09:59:44;24.80;62.30
7194;DHT22;3638;48.820;9.244;2023-06-04T10:02:13;24.80;62.40
7194;DHT22;3638;48.820;9.244;2023-06-04T10:04:41;24.70;61.70
7194;DHT22;3638;48.820;9.244;2023-06-04T10:07:09;24.70;62.50
7194;DHT22;3638;48.820;9.244;2023-06-04T10:09:40;24.80;61.70
7194;DHT22;3638;48.820;9.244;2023-06-04T10:12:13;24.10;61.60
7194;DHT22;3638;48.820;9.244;2023-06-04T10:14:47;24.20;62.40
7194;DHT22;3638;48.820;9.244;2023-06-04T10:17:21;24.30;63.70
7194;DHT22;3638;48.820;9.244;2023-06-04T10:19:50;24.60;60.90
7194;DHT22;3638;48.820;9.244;2023-06-04T10:22:20;24.50;61.70
7194;DHT22;3638;48.820;9.244;2023-06-04T10:24:49;24.50;62.50
7194;DHT22;3638;48.820;9.244;2023-06-04T10:27:17;24.40;63.30
7194;DHT22;3638;48.820;9.244;2023-06-04T10:29:46;24.20;62.70
7194;DHT22;3638;48.820;9.244;2023-06-04T10:32:13;24.30;61.90
7194;DHT22;3638;48.820;9.244;2023-06-04T10:34:41;24.50;62.00
7194;DHT22;3638;48.820;9.244;2023-06-04T10:37:19;24.90;61.10
7194;DHT22;3638;48.820;9.244;2023-06-04T10:39:52;24.70;60.40
7194;DHT22;3638;48.820;9.244;2023-06-04T10:42:20;24.60;61.20
7194;DHT22;3638;48.820;9.244;2023-06-04T10:44:48;24.80;61.60
7194;DHT22;3638;48.820;9.244;2023-06-04T10:47:21;24.90;59.80
7194;DHT22;3638;48.820;9.244;2023-06-04T10:49:49;25.00;60.80
7194;DHT22;3638;48.820;9.244;2023-06-04T10:52:17;24.70;60.70
7194;DHT22;3638;48.820;9.244;2023-06-04T10:54:45;24.60;59.20
7194;DHT22;3638;48.820;9.244;2023-06-04T10:57:16;24.70;60.50
7194;DHT22;3638;48.820;9.244;2023-06-04T10:59:53;24.70;61.60
7194;DHT22;3638;48.820;9.244;2023-06-04T11:02:21;25.00;60.10
7194;DHT22;3638;48.820;9.244;2023-06-04T11:04:58;25.10;60.60
7194;DHT22;3638;48.820;9.244;2023-06-04T11:07:40;25.00;59.60
7194;DHT22;3638;48.820;9.244;2023-06-04T11:10:09;24.80;58.90
7194;DHT22;3638;48.820;9.244;2023-06-04T11:12:43;24.90;59.20
7194;DHT22;3638;48.820;9.244;2023-06-04T11:15:11;25.10;59.20
7194;DHT22;3638;48.820;9.244;2023-06-04T11:20:16;25.20;59.10
7194;DHT22;3638;48.820;9.244;2023-06-04T11:22:50;25.40;58.80
7194;DHT22;3638;48.820;9.244;2023-06-04T11:25:18;25.10;58.20
7194;DHT22;3638;48.820;9.244;2023-06-04T11:27:49;25.00;58.50
7194;DHT22;3638;48.820;9.244;2023-06-04T11:30:16;25.30;59.20
7194;DHT22;3638;48.820;9.244;2023-06-04T11:32:44;25.30;59.10
7194;DHT22;3638;48.820;9.244;2023-06-04T11:35:11;24.70;58.90
7194;DHT22;3638;48.820;9.244;2023-06-04T11:37:38;24.30;59.00
7194;DHT22;3638;48.820;9.244;2023-06-04T11:40:15;24.00;59.80
7194;DHT22;3638;48.820;9.244;2023-06-04T11:42:43;24.20;59.80
7194;DHT22;3638;48.820;9.244;2023-06-04T11:45:12;24.30;59.70
7194;DHT22;3638;48.820;9.244;2023-06-04T11:47:40;24.60;60.50
7194;DHT22;3638;48.820;9.244;2023-06-04T11:50:09;24.80;59.00
7194;DHT22;3638;48.820;9.244;2023-06-04T11:52:36;25.00;57.90
7194;DHT22;3638;48.820;9.244;2023-06-04T11:55:05;25.00;58.10
7194;DHT22;3638;48.820;9.244;2023-06-04T11:57:35;24.80;57.70
7194;DHT22;3638;48.820;9.244;2023-06-04T12:00:03;24.60;58.60
7194;DHT22;3638;48.820;9.244;2023-06-04T12:02:36;24.70;59.30
7194;DHT22;3638;48.820;9.244;2023-06-04T12:05:13;24.70;59.40
7194;DHT22;3638;48.820;9.244;2023-06-04T12:10:09;24.70;58.40
7194;DHT22;3638;48.820;9.244;2023-06-04T12:12:37;24.70;58.50
7194;DHT22;3638;48.820;9.244;2023-06-04T12:15:06;24.90;59.00
7194;DHT22;3638;48.820;9.244;2023-06-04T12:17:36;25.00;58.40
7194;DHT22;3638;48.820;9.244;2023-06-04T12:20:05;24.60;58.50
7194;DHT22;3638;48.820;9.244;2023-06-04T12:22:33;24.60;58.10
7194;DHT22;3638;48.820;9.244;2023-06-04T12:25:11;24.60;58.50
7194;DHT22;3638;48.820;9.244;2023-06-04T12:27:46;24.60;58.10
7194;DHT22;3638;48.820;9.244;2023-06-04T12:30:14;24.80;58.70
7194;DHT22;3638;48.820;9.244;2023-06-04T12:32:43;25.00;58.20
7194;DHT22;3638;48.820;9.244;2023-06-04T12:35:11;25.20;56.10
7194;DHT22;3638;48.820;9.244;2023-06-04T12:37:38;25.00;57.20
7194;DHT22;3638;48.820;9.244;2023-06-04T12:40:06;25.00;56.80
7194;DHT22;3638;48.820;9.244;2023-06-04T12:42:34;24.90;56.70
7194;DHT22;3638;48.820;9.244;2023-06-04T12:47:30;24.60;57.30
7194;DHT22;3638;48.820;9.244;2023-06-04T12:49:59;24.40;57.20
7194;DHT22;3638;48.820;9.244;2023-06-04T12:52:27;24.50;57.00
7194;DHT22;3638;48.820;9.244;2023-06-04T12:54:54;24.90;57.50
7194;DHT22;3638;48.820;9.244;2023-06-04T12:57:21;24.90;57.00
7194;DHT22;3638;48.820;9.244;2023-06-04T12:59:48;24.70;56.90
7194;DHT22;3638;48.820;9.244;2023-06-04T13:02:15;24.50;56.60
7194;DHT22;3638;48.820;9.244;2023-06-04T13:04:42;24.40;56.80
7194;DHT22;3638;48.820;9.244;2023-06-04T13:07:12;24.50;57.30
7194;DHT22;3638;48.820;9.244;2023-06-04T13:09:40;24.60;56.30
7194;DHT22;3638;48.820;9.244;2023-06-04T13:12:08;24.50;56.20
7194;DHT22;3638;48.820;9.244;2023-06-04T13:14:35;24.60;56.30
7194;DHT22;3638;48.820;9.244;2023-06-04T13:17:03;24.70;55.80
7194;DHT22;3638;48.820;9.244;2023-06-04T13:19:30;24.70;56.20
7194;DHT22;3638;48.820;9.244;2023-06-04T13:21:57;24.70;56.60
7194;DHT22;3638;48.820;9.244;2023-06-04T13:24:26;24.60;56.50
7194;DHT22;3638;48.820;9.244;2023-06-04T13:26:53;24.60;57.30
7194;DHT22;3638;48.820;9.244;2023-06-04T13:31:48;24.60;56.10
7194;DHT22;3638;48.820;9.244;2023-06-04T13:34:16;24.80;55.70
7194;DHT22;3638;48.820;9.244;2023-06-04T13:36:43;24.80;53.20
7194;DHT22;3638;48.820;9.244;2023-06-04T13:39:10;24.80;53.40
7194;DHT22;3638;48.820;9.244;2023-06-04T13:41:39;25.00;53.30
7194;DHT22;3638;48.820;9.244;2023-06-04T13:44:06;24.90;53.30
7194;DHT22;3638;48.820;9.244;2023-06-04T13:49:01;24.80;53.60
7194;DHT22;3638;48.820;9.244;2023-06-04T13:51:29;24.90;52.50
7194;DHT22;3638;48.820;9.244;2023-06-04T13:53:56;24.90;54.10
7194;DHT22;3638;48.820;9.244;2023-06-04T13:56:24;24.90;54.10
7194;DHT22;3638;48.820;9.244;2023-06-04T13:58:56;25.00;54.30
7194;DHT22;3638;48.820;9.244;2023-06-04T14:03:50;24.70;54.20
7194;DHT22;3638;48.820;9.244;2023-06-04T14:06:18;24.70;53.00
7194;DHT22;3638;48.820;9.244;2023-06-04T14:08:45;24.80;54.10
7194;DHT22;3638;48.820;9.244;2023-06-04T14:11:12;24.80;52.10
7194;DHT22;3638;48.820;9.244;2023-06-04T14:13:40;24.90;53.70
7194;DHT22;3638;48.820;9.244;2023-06-04T14:16:12;24.80;54.10
7194;DHT22;3638;48.820;9.244;2023-06-04T14:18:39;23.40;52.00
7194;DHT22;3638;48.820;9.244;2023-06-04T14:21:06;25.00;51.80
7194;DHT22;3638;48.820;9.244;2023-06-04T14:23:34;25.10;51.40
7194;DHT22;3638;48.820;9.244;2023-06-04T14:26:01;25.10;50.50
7194;DHT22;3638;48.820;9.244;2023-06-04T14:28:28;25.10;51.40
7194;DHT22;3638;48.820;9.244;2023-06-04T14:30:55;25.20;52.10
7194;DHT22;3638;48.820;9.244;2023-06-04T14:33:25;25.30;51.50
7194;DHT22;3638;48.820;9.244;2023-06-04T14:35:52;25.10;51.30
7194;DHT22;3638;48.820;9.244;2023-06-04T14:38:19;25.00;50.30
7194;DHT22;3638;48.820;9.244;2023-06-04T14:40:46;24.70;51.40
7194;DHT22;3638;48.820;9.244;2023-06-04T14:43:13;24.80;52.50
7194;DHT22;3638;48.820;9.244;2023-06-04T14:45:41;24.80;52.50
7194;DHT22;3638;48.820;9.244;2023-06-04T14:48:08;24.90;53.00
7194;DHT22;3638;48.820;9.244;2023-06-04T14:50:37;24.90;52.30
7194;DHT22;3638;48.820;9.244;2023-06-04T14:53:04;24.90;52.30
7194;DHT22;3638;48.820;9.244;2023-06-04T14:55:32;24.90;52.50
7194;DHT22;3638;48.820;9.244;2023-06-04T14:58:00;24.90;51.60
7194;DHT22;3638;48.820;9.244;2023-06-04T15:00:28;24.90;52.00
7194;DHT22;3638;48.820;9.244;2023-06-04T15:02:55;24.90;52.60
7194;DHT22;3638;48.820;9.244;2023-06-04T15:05:22;24.90;52.10
7194;DHT22;3638;48.820;9.244;2023-06-04T15:07:51;24.90;51.10
7194;DHT22;3638;48.820;9.244;2023-06-04T15:10:18;24.80;50.90
7194;DHT22;3638;48.820;9.244;2023-06-04T15:12:45;24.70;50.80
7194;DHT22;3638;48.820;9.244;2023-06-04T15:15:12;25.00;51.40
7194;DHT22;3638;48.820;9.244;2023-06-04T15:17:39;24.60;50.70
7194;DHT22;3638;48.820;9.244;2023-06-04T15:20:07;24.60;50.90
7194;DHT22;3638;48.820;9.244;2023-06-04T15:22:35;24.70;51.90
7194;DHT22;3638;48.820;9.244;2023-06-04T15:25:04;24.80;50.80
7194;DHT22;3638;48.820;9.244;2023-06-04T15:27:32;24.70;51.70
7194;DHT22;3638;48.820;9.244;2023-06-04T15:30:00;24.80;52.30
7194;DHT22;3638;48.820;9.244;2023-06-04T15:32:27;24.70;51.50
7194;DHT22;3638;48.820;9.244;2023-06-04T15:34:54;24.70;51.40
7194;DHT22;3638;48.820;9.244;2023-06-04T15:37:23;24.60;51.20
7194;DHT22;3638;48.820;9.244;2023-06-04T15:39:50;24.60;51.30
7194;DHT22;3638;48.820;9.244;2023-06-04T15:42:22;24.60;52.30
7194;DHT22;3638;48.820;9.244;2023-06-04T15:44:49;24.80;51.80
7194;DHT22;3638;48.820;9.244;2023-06-04T15:47:16;24.70;51.90
7194;DHT22;3638;48.820;9.244;2023-06-04T15:49:43;24.70;51.70
7194;DHT22;3638;48.820;9.244;2023-06-04T15:52:10;24.80;52.30
7194;DHT22;3638;48.820;9.244;2023-06-04T15:54:37;24.90;51.80
7194;DHT22;3638;48.820;9.244;2023-06-04T15:57:04;24.80;52.00
7194;DHT22;3638;48.820;9.244;2023-06-04T15:59:33;24.90;53.10
7194;DHT22;3638;48.820;9.244;2023-06-04T16:02:00;24.90;52.10
7194;DHT22;3638;48.820;9.244;2023-06-04T16:06:54;24.80;52.70
7194;DHT22;3638;48.820;9.244;2023-06-04T16:09:22;24.70;53.50
7194;DHT22;3638;48.820;9.244;2023-06-04T16:11:49;24.60;53.70
7194;DHT22;3638;48.820;9.244;2023-06-04T16:14:16;24.50;53.10
7194;DHT22;3638;48.820;9.244;2023-06-04T16:16:45;24.50;52.80
7194;DHT22;3638;48.820;9.244;2023-06-04T16:19:12;24.40;52.10
7194;DHT22;3638;48.820;9.244;2023-06-04T16:21:39;24.50;53.50
7194;DHT22;3638;48.820;9.244;2023-06-04T16:24:07;24.60;52.50
7194;DHT22;3638;48.820;9.244;2023-06-04T16:26:34;24.60;53.00
7194;DHT22;3638;48.820;9.244;2023-06-04T16:29:01;24.60;53.60
7194;DHT22;3638;48.820;9.244;2023-06-04T16:31:28;24.60;52.60
7194;DHT22;3638;48.820;9.244;2023-06-04T16:33:56;24.50;53.50
7194;DHT22;3638;48.820;9.244;2023-06-04T16:36:23;24.50;53.30
7194;DHT22;3638;48.820;9.244;2023-06-04T16:38:51;24.40;53.20
7194;DHT22;3638;48.820;9.244;2023-06-04T16:43:46;24.30;53.60
7194;DHT22;3638;48.820;9.244;2023-06-04T16:48:41;24.30;54.80
7194;DHT22;3638;48.820;9.244;2023-06-04T16:51:10;24.40;54.50
7194;DHT22;3638;48.820;9.244;2023-06-04T16:56:04;24.30;54.90
7194;DHT22;3638;48.820;9.244;2023-06-04T16:58:31;24.40;55.50
7194;DHT22;3638;48.820;9.244;2023-06-04T17:01:00;24.30;54.00
7194;DHT22;3638;48.820;9.244;2023-06-04T17:03:28;24.20;54.50
7194;DHT22;3638;48.820;9.244;2023-06-04T17:05:55;24.20;54.40
7194;DHT22;3638;48.820;9.244;2023-06-04T17:08:23;24.30;54.40
7194;DHT22;3638;48.820;9.244;2023-06-04T17:10:51;24.40;55.00
7194;DHT22;3638;48.820;9.244;2023-06-04T17:13:18;24.30;53.80
7194;DHT22;3638;48.820;9.244;2023-06-04T17:15:45;24.30;54.60
7194;DHT22;3638;48.820;9.244;2023-06-04T17:18:13;24.30;54.50
7194;DHT22;3638;48.820;9.244;2023-06-04T17:20:40;24.10;54.10
7194;DHT22;3638;48.820;9.244;2023-06-04T17:23:19;24.00;54.30
7194;DHT22;3638;48.820;9.244;2023-06-04T17:25:48;24.00;55.30
7194;DHT22;3638;48.820;9.244;2023-06-04T17:28:16;24.00;55.80
7194;DHT22;3638;48.820;9.244;2023-06-04T17:30:44;24.10;56.30
7194;DHT22;3638;48.820;9.244;2023-06-04T17:35:46;23.90;55.60
7194;DHT22;3638;48.820;9.244;2023-06-04T17:48:08;23.90;55.20
7194;DHT22;3638;48.820;9.244;2023-06-04T17:50:36;23.80;54.90
7194;DHT22;3638;48.820;9.244;2023-06-04T17:53:03;23.70;55.30
7194;DHT22;3638;48.820;9.244;2023-06-04T17:55:31;23.70;54.60
7194;DHT22;3638;48.820;9.244;2023-06-04T18:02:56;23.60;55.40
7194;DHT22;3638;48.820;9.244;2023-06-04T18:12:46;23.40;55.50
7194;DHT22;3638;48.820;9.244;2023-06-04T18:15:14;23.30;55.50
7194;DHT22;3638;48.820;9.244;2023-06-04T18:20:10;23.20;55.50
7194;DHT22;3638;48.820;9.244;2023-06-04T18:22:38;23.20;55.80